Terminal Aerodrome Forecast
Issued by NWS Quad Cities IA IL

Home | Current Version | Previous Version | Text Only | Print | Product List | Glossary On
Versions: 1 2 3 4 5 6 7 8 9 10 11 12 13 14 15 16 17 18 19 20 21 22 23 24 25 26 27 28 29 30 31 32
266
FTUS43 KDVN 190803 AAB
TAFMLI
TAF AMD
KMLI 190803Z 1908/2006 09003KT 5SM BR SCT004
      TEMPO 1908/1910 3SM BR
     FM191000 14004KT 3SM BR OVC012
     FM191500 12004KT 4SM BR OVC007
     FM191900 10005KT 1SM -RADZ OVC006=

USA.gov is the U.S. government's official web portal to all federal, state and local government web resources and services.